createdAt,value
2018-04-09T00:00:49.945Z,13.54
2018-04-09T00:01:54.075Z,13.51
2018-04-09T00:02:58.127Z,13.48
2018-04-09T00:04:02.471Z,13.55
2018-04-09T00:05:08.925Z,13.67
2018-04-09T00:06:16.554Z,13.69
2018-04-09T00:07:20.600Z,13.53
2018-04-09T00:08:25.375Z,13.46
2018-04-09T00:09:31.676Z,13.41
2018-04-09T00:10:37.717Z,13.45
2018-04-09T00:11:41.769Z,13.45
2018-04-09T00:12:46.648Z,13.48
2018-04-09T00:13:51.857Z,13.48
2018-04-09T00:14:57.563Z,13.46
2018-04-09T00:16:03.387Z,13.45
2018-04-09T00:17:08.608Z,13.45
2018-04-09T00:18:14.899Z,13.40
2018-04-09T00:19:19.502Z,13.40
2018-04-09T00:20:24.979Z,13.27
2018-04-09T00:21:29.680Z,13.19
2018-04-09T00:22:35.562Z,13.16
2018-04-09T00:23:41.503Z,13.12
2018-04-09T00:24:45.601Z,13.15
2018-04-09T00:25:50.163Z,13.15
2018-04-09T00:26:54.737Z,13.13
2018-04-09T00:27:58.929Z,13.13
2018-04-09T00:29:11.453Z,13.13
2018-04-09T00:30:20.808Z,13.12
2018-04-09T00:31:26.956Z,13.14
2018-04-09T00:32:36.832Z,13.15
2018-04-09T00:33:41.880Z,13.21
2018-04-09T00:34:46.653Z,13.15
2018-04-09T00:35:55.634Z,13.08
2018-04-09T00:37:00.449Z,13.05
2018-04-09T00:38:04.833Z,13.02
2018-04-09T00:39:08.991Z,13.03
2018-04-09T00:40:16.215Z,12.96
2018-04-09T00:41:20.573Z,12.92
2018-04-09T00:42:25.206Z,12.88
2018-04-09T00:43:29.264Z,12.85
2018-04-09T00:44:36.876Z,12.91
2018-04-09T00:45:41.305Z,12.91
2018-04-09T00:46:45.972Z,12.92
2018-04-09T00:47:50.718Z,12.89
2018-04-09T00:48:55.081Z,12.85
2018-04-09T00:50:04.152Z,12.76
2018-04-09T00:51:08.660Z,12.87
2018-04-09T00:52:13.216Z,12.87
2018-04-09T00:53:18.232Z,12.79
2018-04-09T00:54:22.917Z,12.82
2018-04-09T00:55:28.956Z,12.84
2018-04-09T00:56:34.016Z,12.82
2018-04-09T00:57:38.152Z,12.63
2018-04-09T00:58:42.471Z,12.45
2018-04-09T00:59:47.148Z,12.30
2018-04-09T01:00:51.558Z,12.28
2018-04-09T01:01:55.712Z,12.33
2018-04-09T01:03:00.105Z,12.30
2018-04-09T01:04:04.567Z,12.31
2018-04-09T01:05:10.504Z,12.40
2018-04-09T01:06:15.210Z,12.40
2018-04-09T01:07:19.340Z,12.39
2018-04-09T01:08:23.721Z,12.44
2018-04-09T01:09:27.807Z,12.47
2018-04-09T01:10:31.976Z,12.53
2018-04-09T01:11:36.669Z,12.59
2018-04-09T01:12:41.485Z,12.57
2018-04-09T01:13:45.572Z,12.56
2018-04-09T01:14:50.301Z,12.61
2018-04-09T01:15:55.062Z,12.67
2018-04-09T01:17:00.065Z,12.62
2018-04-09T01:18:05.017Z,12.56
2018-04-09T01:19:10.639Z,12.49
2018-04-09T01:20:14.740Z,12.45
2018-04-09T01:21:19.116Z,12.34
2018-04-09T01:22:23.613Z,12.29
2018-04-09T01:23:27.665Z,12.27
2018-04-09T01:24:33.004Z,12.34
2018-04-09T01:25:38.901Z,12.27
2018-04-09T01:26:46.925Z,12.24
2018-04-09T01:27:53.312Z,12.19
2018-04-09T01:28:57.708Z,12.16
2018-04-09T01:30:03.763Z,12.08
2018-04-09T01:31:08.924Z,12.04
2018-04-09T01:32:14.532Z,12.04
2018-04-09T01:33:21.098Z,12.03
2018-04-09T01:34:26.697Z,11.96
2018-04-09T01:35:31.805Z,11.88
2018-04-09T01:36:36.334Z,11.82
2018-04-09T01:37:40.620Z,11.80
2018-04-09T01:38:45.368Z,11.78
2018-04-09T01:39:49.958Z,11.75
2018-04-09T01:40:54.508Z,11.70
2018-04-09T01:42:00.177Z,11.66
2018-04-09T01:43:06.418Z,11.62
2018-04-09T01:44:11.823Z,11.56
2018-04-09T01:45:17.070Z,11.52
2018-04-09T01:46:22.885Z,11.61
2018-04-09T01:47:27.441Z,11.64
2018-04-09T01:48:31.569Z,11.64
2018-04-09T01:49:36.730Z,11.70
2018-04-09T01:50:42.424Z,11.78
2018-04-09T01:51:46.761Z,11.79
2018-04-09T01:52:53.851Z,11.75
2018-04-09T01:53:59.296Z,11.68
2018-04-09T01:55:03.975Z,11.61
2018-04-09T01:56:15.025Z,11.63
2018-04-09T01:57:21.581Z,11.85
2018-04-09T01:58:27.640Z,11.79
2018-04-09T01:59:36.446Z,11.64
2018-04-09T02:00:40.688Z,11.65
2018-04-09T02:01:45.733Z,11.60
2018-04-09T02:02:50.519Z,11.57
2018-04-09T02:03:56.646Z,11.55
2018-04-09T02:05:01.131Z,11.51
2018-04-09T02:06:06.084Z,11.45
2018-04-09T02:07:10.240Z,11.40
2018-04-09T02:08:16.081Z,11.38
2018-04-09T02:09:20.256Z,11.48
2018-04-09T02:10:24.456Z,11.49
2018-04-09T02:11:29.484Z,11.51
2018-04-09T02:12:34.552Z,11.50
2018-04-09T02:13:39.343Z,11.49
2018-04-09T02:14:43.935Z,11.56
2018-04-09T02:15:49.506Z,11.55
2018-04-09T02:16:53.848Z,11.50
2018-04-09T02:17:58.402Z,11.44
2018-04-09T02:19:03.044Z,11.41
2018-04-09T02:20:07.435Z,11.33
2018-04-09T02:21:13.291Z,11.30
2018-04-09T02:22:21.790Z,11.22
2018-04-09T02:23:26.301Z,11.20
2018-04-09T02:24:30.543Z,11.20
2018-04-09T02:25:34.584Z,11.17
2018-04-09T02:26:38.835Z,11.12
2018-04-09T02:27:43.397Z,11.04
2018-04-09T02:28:48.241Z,11.03
2018-04-09T02:29:52.751Z,11.00
2018-04-09T02:30:57.283Z,10.92
2018-04-09T02:32:01.656Z,10.87
2018-04-09T02:33:05.753Z,10.87
2018-04-09T02:34:09.786Z,10.92
2018-04-09T02:35:14.016Z,10.91
2018-04-09T02:36:18.398Z,10.89
2018-04-09T02:37:22.836Z,10.86
2018-04-09T02:38:28.357Z,10.85
2018-04-09T02:39:33.287Z,10.87
2018-04-09T02:40:38.342Z,10.80
2018-04-09T02:41:42.607Z,10.69
2018-04-09T02:42:46.657Z,10.59
2018-04-09T02:43:51.129Z,10.54
2018-04-09T02:44:56.095Z,10.49
2018-04-09T02:46:00.558Z,10.43
2018-04-09T02:47:05.272Z,10.43
2018-04-09T02:48:09.892Z,10.49
2018-04-09T02:49:14.314Z,10.57
2018-04-09T02:50:18.735Z,10.64
2018-04-09T02:51:23.025Z,10.65
2018-04-09T02:52:27.289Z,10.58
2018-04-09T02:53:31.739Z,10.62
2018-04-09T02:54:36.369Z,10.55
2018-04-09T02:55:42.365Z,10.53
2018-04-09T02:56:47.016Z,10.48
2018-04-09T02:57:51.316Z,10.48
2018-04-09T02:58:55.812Z,10.51
2018-04-09T03:00:03.834Z,10.55
2018-04-09T03:01:08.364Z,10.51
2018-04-09T03:02:12.909Z,10.47
2018-04-09T03:03:18.327Z,10.48
2018-04-09T03:04:22.877Z,10.47
2018-04-09T03:05:27.637Z,10.41
2018-04-09T03:06:32.193Z,10.42
2018-04-09T03:07:37.899Z,10.44
2018-04-09T03:08:41.982Z,10.38
2018-04-09T03:09:46.046Z,10.39
2018-04-09T03:10:51.568Z,10.39
2018-04-09T03:11:55.928Z,10.51
2018-04-09T03:13:01.235Z,10.63
2018-04-09T03:14:06.930Z,10.60
2018-04-09T03:15:16.673Z,10.70
2018-04-09T03:16:21.184Z,10.73
2018-04-09T03:17:25.884Z,10.76
2018-04-09T03:18:37.612Z,10.75
2018-04-09T03:19:41.656Z,10.78
2018-04-09T03:20:46.517Z,10.68
2018-04-09T03:21:51.114Z,10.53
2018-04-09T03:22:57.320Z,10.47
2018-04-09T03:24:02.045Z,10.48
2018-04-09T03:25:06.304Z,10.55
2018-04-09T03:26:10.837Z,10.58
2018-04-09T03:27:15.271Z,10.58
2018-04-09T03:28:20.066Z,10.47
2018-04-09T03:29:24.752Z,10.39
2018-04-09T03:30:29.070Z,10.33
2018-04-09T03:31:34.906Z,10.43
2018-04-09T03:32:39.330Z,10.41
2018-04-09T03:33:43.373Z,10.39
2018-04-09T03:34:47.516Z,10.36
2018-04-09T03:35:52.284Z,10.38
2018-04-09T03:36:56.357Z,10.41
2018-04-09T03:38:00.402Z,10.51
2018-04-09T03:40:17.671Z,10.47
2018-04-09T03:41:21.720Z,10.38
2018-04-09T03:42:26.084Z,10.36
2018-04-09T03:43:30.132Z,10.32
2018-04-09T03:44:34.800Z,10.27
2018-04-09T03:45:39.963Z,10.29
2018-04-09T03:46:44.045Z,10.28
2018-04-09T03:47:48.140Z,10.26
2018-04-09T03:48:52.521Z,10.32
2018-04-09T03:49:56.661Z,10.32
2018-04-09T03:51:00.741Z,10.34
2018-04-09T03:52:04.785Z,10.31
2018-04-09T03:53:08.916Z,10.37
2018-04-09T03:54:12.980Z,10.41
2018-04-09T03:55:17.639Z,10.49
2018-04-09T03:56:22.110Z,10.52
2018-04-09T03:57:27.757Z,10.48
2018-04-09T03:58:31.919Z,10.41
2018-04-09T03:59:38.533Z,10.36
2018-04-09T04:00:44.486Z,10.29
2018-04-09T04:01:49.218Z,10.34
2018-04-09T04:02:53.556Z,10.38
2018-04-09T04:03:58.503Z,10.46
2018-04-09T04:05:02.585Z,10.43
2018-04-09T04:06:08.942Z,10.42
2018-04-09T04:07:13.392Z,10.46
2018-04-09T04:08:17.664Z,10.45
2018-04-09T04:09:21.716Z,10.31
2018-04-09T04:10:26.540Z,10.25
2018-04-09T04:11:31.096Z,10.20
2018-04-09T04:12:35.888Z,10.12
2018-04-09T04:13:40.993Z,10.14
2018-04-09T04:14:46.037Z,10.19
2018-04-09T04:18:01.520Z,10.26
2018-04-09T04:21:17.388Z,10.45
2018-04-09T04:22:21.534Z,10.33
2018-04-09T04:23:25.928Z,10.46
2018-04-09T04:24:33.492Z,10.49
2018-04-09T04:25:38.598Z,10.44
2018-04-09T04:26:43.404Z,10.40
2018-04-09T04:27:48.368Z,10.41
2018-04-09T04:28:53.299Z,10.37
2018-04-09T04:29:57.459Z,10.31
2018-04-09T04:31:02.693Z,10.46
2018-04-09T04:32:07.654Z,10.48
2018-04-09T04:33:13.208Z,10.47
2018-04-09T04:34:17.861Z,10.39
2018-04-09T04:35:22.988Z,10.29
2018-04-09T04:36:27.597Z,10.28
2018-04-09T04:37:31.645Z,10.26
2018-04-09T04:38:37.496Z,10.19
2018-04-09T04:39:42.031Z,10.21
2018-04-09T04:40:47.504Z,10.23
2018-04-09T04:41:51.863Z,10.25
2018-04-09T04:42:55.920Z,10.28
2018-04-09T04:44:00.113Z,10.37
2018-04-09T04:45:06.179Z,10.38
2018-04-09T04:46:13.174Z,10.49
2018-04-09T04:47:17.692Z,10.45
2018-04-09T04:48:21.761Z,10.46
2018-04-09T04:49:25.887Z,10.49
2018-04-09T04:50:33.295Z,10.53
2018-04-09T04:51:40.841Z,10.59
2018-04-09T04:52:46.773Z,10.67
2018-04-09T04:53:52.533Z,10.76
2018-04-09T04:54:57.005Z,10.87
2018-04-09T04:56:01.529Z,10.99
2018-04-09T04:57:37.661Z,11.04
2018-04-09T04:58:42.355Z,11.13
2018-04-09T04:59:47.762Z,11.20
2018-04-09T05:00:52.162Z,11.28
2018-04-09T05:01:56.213Z,11.42
2018-04-09T05:03:00.348Z,11.48
2018-04-09T05:04:04.713Z,11.55
2018-04-09T05:05:13.683Z,11.58
2018-04-09T05:06:17.860Z,11.58
2018-04-09T05:07:21.960Z,11.59
2018-04-09T05:08:29.743Z,11.62
2018-04-09T05:09:35.856Z,11.64
2018-04-09T05:10:40.399Z,11.64
2018-04-09T05:11:44.468Z,11.69
2018-04-09T05:12:48.620Z,11.63
2018-04-09T05:13:52.671Z,11.64
2018-04-09T05:14:57.821Z,11.68
2018-04-09T05:16:04.723Z,11.72
2018-04-09T05:17:11.668Z,11.76
2018-04-09T05:18:18.575Z,11.76
2018-04-09T05:19:23.464Z,11.77
2018-04-09T05:20:34.876Z,11.86
2018-04-09T05:21:39.832Z,11.91
2018-04-09T05:22:44.657Z,11.96
2018-04-09T05:23:49.048Z,12.01
2018-04-09T05:24:53.153Z,12.02
2018-04-09T05:25:58.033Z,11.97
2018-04-09T05:27:02.951Z,11.89
2018-04-09T05:28:07.008Z,11.93
2018-04-09T05:29:11.065Z,11.99
2018-04-09T05:30:15.912Z,12.03
2018-04-09T05:31:19.976Z,12.10
2018-04-09T05:32:24.995Z,12.20
2018-04-09T05:34:57.101Z,12.19
2018-04-09T05:36:02.030Z,12.20
2018-04-09T05:37:09.951Z,12.16
2018-04-09T05:38:15.526Z,11.96
2018-04-09T05:39:19.628Z,12.03
2018-04-09T05:40:23.742Z,12.15
2018-04-09T05:41:29.714Z,12.19
2018-04-09T05:42:34.522Z,12.21
2018-04-09T05:43:43.357Z,12.29
2018-04-09T05:44:48.497Z,12.39
2018-04-09T05:45:54.026Z,12.56
2018-04-09T05:47:00.305Z,12.62
2018-04-09T05:48:05.273Z,12.78
2018-04-09T05:49:10.260Z,12.97
2018-04-09T05:50:14.752Z,12.93
2018-04-09T05:51:19.737Z,13.02
2018-04-09T05:52:24.261Z,13.13
2018-04-09T05:53:29.162Z,13.35
2018-04-09T05:54:35.988Z,13.38
2018-04-09T05:55:40.129Z,13.40
2018-04-09T05:56:45.589Z,13.48
2018-04-09T05:57:49.642Z,13.55
2018-04-09T05:58:55.678Z,13.46
2018-04-09T06:00:00.336Z,13.57
2018-04-09T06:01:06.123Z,13.59
2018-04-09T06:02:12.012Z,13.62
2018-04-09T06:03:20.725Z,13.53
2018-04-09T06:04:25.420Z,13.57
2018-04-09T06:05:30.214Z,13.70
2018-04-09T06:06:35.306Z,13.64
2018-04-09T06:07:40.009Z,13.66
2018-04-09T06:08:44.737Z,13.77
2018-04-09T06:09:51.233Z,13.87
2018-04-09T06:10:55.789Z,13.79
2018-04-09T06:11:59.959Z,13.78
2018-04-09T06:13:06.760Z,13.73
2018-04-09T06:14:11.617Z,13.75
2018-04-09T06:15:17.013Z,13.75
2018-04-09T06:16:21.881Z,13.80
2018-04-09T06:17:26.881Z,13.88
2018-04-09T06:18:31.038Z,14.05
2018-04-09T06:19:35.092Z,14.06
2018-04-09T06:20:40.802Z,13.91
2018-04-09T06:21:46.444Z,13.84
2018-04-09T06:22:51.158Z,13.89
2018-04-09T06:23:56.291Z,13.97
2018-04-09T06:25:02.481Z,13.97
2018-04-09T06:26:06.632Z,13.91
2018-04-09T06:27:10.993Z,13.80
2018-04-09T06:28:15.904Z,13.86
2018-04-09T06:29:20.712Z,13.67
2018-04-09T06:30:25.905Z,13.56
2018-04-09T06:31:31.728Z,13.45
2018-04-09T06:32:36.069Z,13.45
2018-04-09T06:33:40.469Z,13.42
2018-04-09T06:34:47.847Z,13.46
2018-04-09T06:35:52.602Z,13.44
2018-04-09T06:36:57.656Z,13.53
2018-04-09T06:38:03.240Z,13.71
2018-04-09T06:39:07.497Z,13.78
2018-04-09T06:40:14.832Z,13.84
2018-04-09T06:41:18.994Z,13.95
2018-04-09T06:42:23.068Z,14.11
2018-04-09T06:43:28.108Z,13.96
2018-04-09T06:44:33.054Z,13.79
2018-04-09T06:45:40.936Z,13.76
2018-04-09T06:46:47.129Z,13.86
2018-04-09T06:47:52.502Z,13.99
2018-04-09T06:49:00.414Z,14.02
2018-04-09T06:50:04.632Z,13.98
2018-04-09T06:51:10.108Z,14.04
2018-04-09T06:52:18.788Z,14.01
2018-04-09T06:53:25.877Z,14.04
2018-04-09T06:54:31.676Z,14.04
2018-04-09T06:55:38.421Z,14.12
2018-04-09T06:56:47.641Z,14.14
2018-04-09T06:57:58.708Z,14.17
2018-04-09T06:59:08.716Z,14.21
2018-04-09T07:00:20.830Z,14.39
2018-04-09T07:01:28.602Z,14.60
2018-04-09T07:02:35.135Z,14.81
2018-04-09T07:03:39.600Z,14.82
2018-04-09T07:04:44.322Z,14.78
2018-04-09T07:05:50.131Z,14.98
2018-04-09T07:06:55.995Z,14.97
2018-04-09T07:08:01.772Z,14.97
2018-04-09T07:09:07.725Z,14.79
2018-04-09T07:10:13.592Z,14.50
2018-04-09T07:11:19.476Z,14.32
2018-04-09T07:12:25.632Z,14.27
2018-04-09T07:13:33.979Z,14.42
2018-04-09T07:14:40.985Z,14.54
2018-04-09T07:15:47.699Z,14.60
2018-04-09T07:16:53.981Z,14.79
2018-04-09T07:18:00.334Z,14.73
2018-04-09T07:19:05.824Z,14.93
2018-04-09T07:20:10.685Z,15.06
2018-04-09T07:21:15.431Z,14.96
2018-04-09T07:22:20.717Z,14.85
2018-04-09T07:23:26.184Z,14.68
2018-04-09T07:24:32.103Z,14.50
2018-04-09T07:25:38.425Z,14.33
2018-04-09T07:26:43.075Z,14.32
2018-04-09T07:27:49.053Z,14.04
2018-04-09T07:28:54.047Z,14.02
2018-04-09T07:29:58.752Z,13.93
2018-04-09T07:31:06.054Z,13.93
2018-04-09T07:32:12.469Z,14.02
2018-04-09T07:33:17.020Z,14.11
2018-04-09T07:34:23.083Z,14.25
2018-04-09T07:35:27.982Z,14.39
2018-04-09T07:36:37.040Z,14.48
2018-04-09T07:37:45.942Z,14.55
2018-04-09T07:38:56.727Z,14.55
2018-04-09T07:40:02.956Z,14.72
2018-04-09T07:41:08.661Z,14.84
2018-04-09T07:42:18.032Z,15.18
2018-04-09T07:43:23.664Z,15.46
2018-04-09T07:44:28.780Z,15.54
2018-04-09T07:45:33.140Z,15.65
2018-04-09T07:46:39.930Z,15.77
2018-04-09T07:47:47.499Z,15.91
2018-04-09T07:48:52.072Z,16.02
2018-04-09T07:49:57.904Z,16.10
2018-04-09T07:51:02.788Z,16.11
2018-04-09T07:52:06.844Z,16.21
2018-04-09T07:53:11.890Z,16.30
2018-04-09T07:54:17.691Z,16.39
2018-04-09T07:55:34.571Z,16.21
2018-04-09T07:57:56.831Z,16.42
2018-04-09T07:59:02.379Z,16.60
2018-04-09T08:00:16.142Z,16.41
2018-04-09T08:01:27.600Z,16.37
2018-04-09T08:02:33.335Z,16.20
2018-04-09T08:03:41.790Z,16.11
2018-04-09T08:04:49.661Z,16.03
2018-04-09T08:05:55.572Z,15.92
2018-04-09T08:07:04.922Z,15.80
2018-04-09T08:08:11.048Z,15.86
2018-04-09T08:09:15.903Z,15.94
2018-04-09T08:10:23.022Z,16.00
2018-04-09T08:11:28.265Z,16.12
2018-04-09T08:12:35.955Z,16.17
2018-04-09T08:13:40.833Z,16.21
2018-04-09T08:14:46.784Z,16.39
2018-04-09T08:15:54.529Z,16.68
2018-04-09T08:17:02.729Z,16.71
2018-04-09T08:18:09.628Z,16.81
2018-04-09T08:19:14.604Z,16.92
2018-04-09T08:20:18.697Z,17.05
2018-04-09T08:21:23.473Z,17.03
2018-04-09T08:23:39.778Z,16.86
2018-04-09T08:24:43.825Z,16.89
2018-04-09T08:25:50.436Z,16.67
2018-04-09T08:26:57.583Z,16.76
2018-04-09T08:28:03.716Z,16.84
2018-04-09T08:29:09.272Z,16.77
2018-04-09T08:30:17.009Z,16.80
2018-04-09T08:31:24.851Z,16.76
2018-04-09T08:32:34.280Z,16.37
2018-04-09T08:33:43.258Z,16.09
2018-04-09T08:34:52.928Z,15.96
2018-04-09T08:36:03.068Z,16.07
2018-04-09T08:37:11.932Z,16.26
2018-04-09T08:38:21.577Z,16.18
2018-04-09T08:39:26.919Z,16.32
2018-04-09T08:40:31.825Z,16.25
2018-04-09T08:41:42.621Z,16.37
2018-04-09T08:42:49.507Z,16.60
2018-04-09T08:44:09.747Z,16.71
2018-04-09T08:45:20.896Z,16.56
2018-04-09T08:46:27.929Z,16.51
2018-04-09T08:47:42.871Z,16.65
2018-04-09T08:48:52.232Z,16.84
2018-04-09T08:50:01.865Z,17.10
2018-04-09T08:51:11.521Z,17.12
2018-04-09T08:52:18.648Z,17.23
2018-04-09T08:53:27.139Z,17.05
2018-04-09T08:54:33.058Z,16.85
2018-04-09T08:55:37.956Z,16.80
2018-04-09T09:03:50.915Z,16.86
2018-04-09T09:04:55.777Z,17.09
2018-04-09T09:05:59.828Z,16.98
2018-04-09T09:07:04.673Z,17.11
2018-04-09T09:08:08.761Z,16.95
2018-04-09T09:09:17.651Z,16.85
2018-04-09T09:10:23.928Z,16.75
2018-04-09T09:11:29.903Z,16.73
2018-04-09T09:12:37.536Z,16.57
2018-04-09T09:13:42.829Z,16.32
2018-04-09T09:14:47.999Z,16.31
2018-04-09T09:15:54.701Z,16.39
2018-04-09T09:17:02.860Z,16.32
2018-04-09T09:18:09.561Z,16.34
2018-04-09T09:19:14.650Z,16.19
2018-04-09T09:20:25.546Z,16.18
2018-04-09T09:21:29.676Z,15.91
2018-04-09T09:22:35.326Z,15.96
2018-04-09T09:23:41.528Z,16.17
2018-04-09T09:24:51.642Z,16.40
2018-04-09T09:26:00.660Z,16.63
2018-04-09T09:27:09.920Z,16.74
2018-04-09T09:28:16.892Z,16.71
2018-04-09T09:29:27.014Z,16.55
2018-04-09T09:30:33.703Z,16.34
2018-04-09T09:31:39.716Z,16.37
2018-04-09T09:32:46.756Z,16.44
2018-04-09T09:33:53.083Z,16.52
2018-04-09T09:35:00.500Z,16.51
2018-04-09T09:36:09.569Z,16.58
2018-04-09T09:37:15.713Z,16.60
2018-04-09T09:38:29.137Z,16.59
2018-04-09T09:39:37.272Z,16.46
2018-04-09T09:40:44.896Z,16.46
2018-04-09T09:41:51.126Z,16.57
2018-04-09T09:43:00.200Z,16.71
2018-04-09T09:44:08.137Z,16.80
2018-04-09T09:45:23.973Z,17.22
2018-04-09T09:46:28.338Z,17.74
2018-04-09T09:47:40.504Z,18.11
2018-04-09T09:48:49.691Z,18.50
2018-04-09T09:49:57.660Z,18.50
2018-04-09T09:51:12.504Z,18.44
2018-04-09T09:52:20.672Z,18.10
2018-04-09T09:53:41.928Z,18.07
2018-04-09T09:54:46.569Z,18.15
2018-04-09T09:55:51.175Z,18.17
2018-04-09T09:56:57.015Z,18.42
2018-04-09T09:58:06.456Z,18.61
2018-04-09T09:59:12.631Z,18.88
2018-04-09T10:00:23.673Z,19.03
2018-04-09T10:01:37.031Z,19.02
2018-04-09T10:02:49.321Z,19.09
2018-04-09T10:03:58.464Z,18.89
2018-04-09T10:05:03.773Z,18.84
2018-04-09T10:06:09.870Z,18.88
2018-04-09T10:07:14.010Z,18.89
2018-04-09T10:08:19.668Z,18.81
2018-04-09T10:09:27.388Z,18.84
2018-04-09T10:10:34.711Z,19.15
2018-04-09T10:11:41.773Z,19.37
2018-04-09T10:12:48.782Z,19.68
2018-04-09T10:13:56.853Z,20.02
2018-04-09T10:16:08.904Z,20.08
2018-04-09T10:17:17.357Z,19.94
2018-04-09T10:18:26.896Z,19.94
2018-04-09T10:19:32.872Z,20.00
2018-04-09T10:20:41.896Z,19.98
2018-04-09T10:21:46.643Z,19.97
2018-04-09T10:22:50.854Z,19.94
2018-04-09T10:23:56.713Z,20.14
2018-04-09T10:25:02.900Z,20.48
2018-04-09T10:26:07.012Z,20.64
2018-04-09T10:27:16.149Z,20.61
2018-04-09T10:28:22.490Z,20.58
2018-04-09T10:29:28.716Z,20.26
2018-04-09T10:30:33.766Z,20.13
2018-04-09T10:31:39.373Z,20.24
2018-04-09T10:32:44.430Z,20.20
2018-04-09T10:33:48.992Z,20.26
2018-04-09T10:34:55.524Z,20.27
2018-04-09T10:36:01.439Z,20.44
2018-04-09T10:37:05.851Z,20.37
2018-04-09T10:38:12.356Z,20.17
2018-04-09T10:39:18.405Z,19.94
2018-04-09T10:40:23.956Z,19.82
2018-04-09T10:41:31.919Z,19.90
2018-04-09T10:42:37.722Z,19.94
2018-04-09T10:43:44.574Z,19.91
2018-04-09T10:44:50.436Z,19.92
2018-04-09T10:45:55.950Z,20.02
2018-04-09T10:47:05.188Z,20.29
2018-04-09T10:48:10.867Z,20.44
2018-04-09T10:49:15.419Z,20.18
2018-04-09T10:50:24.413Z,20.19
2018-04-09T10:51:28.883Z,20.05
2018-04-09T10:52:33.434Z,20.08
2018-04-09T10:53:37.557Z,20.23
2018-04-09T10:54:41.830Z,20.59
2018-04-09T10:55:46.431Z,21.05
2018-04-09T10:56:50.541Z,21.18
2018-04-09T10:57:54.908Z,20.98
2018-04-09T10:58:59.179Z,20.98
2018-04-09T11:00:05.159Z,20.73
2018-04-09T11:01:09.542Z,20.64
2018-04-09T11:02:13.920Z,20.37
2018-04-09T11:03:18.068Z,20.34
2018-04-09T11:04:22.853Z,20.53
2018-04-09T11:05:26.990Z,20.79
2018-04-09T11:06:31.062Z,21.35
2018-04-09T11:07:35.141Z,22.11
2018-04-09T11:08:39.734Z,22.59
2018-04-09T11:09:44.757Z,23.03
2018-04-09T11:10:49.025Z,23.13
2018-04-09T11:11:53.125Z,23.02
2018-04-09T11:12:57.305Z,22.79
2018-04-09T11:14:01.444Z,22.10
2018-04-09T11:15:08.807Z,21.50
2018-04-09T11:16:14.508Z,20.98
2018-04-09T11:17:18.705Z,20.75
2018-04-09T11:18:22.901Z,20.77
2018-04-09T11:19:27.209Z,21.08
2018-04-09T11:21:46.359Z,22.48
2018-04-09T11:22:51.191Z,22.77
2018-04-09T11:23:55.946Z,22.64
2018-04-09T11:25:00.206Z,22.32
2018-04-09T11:26:04.636Z,22.69
2018-04-09T11:27:08.768Z,23.04
2018-04-09T11:28:13.269Z,23.07
2018-04-09T11:29:17.487Z,22.95
2018-04-09T11:30:21.819Z,23.00
2018-04-09T11:31:26.520Z,22.84
2018-04-09T11:32:30.602Z,22.49
2018-04-09T11:33:35.313Z,22.30
2018-04-09T11:34:41.788Z,22.62
2018-04-09T11:35:45.953Z,22.97
2018-04-09T11:36:50.739Z,22.74
2018-04-09T11:37:55.057Z,22.29
2018-04-09T11:38:59.282Z,22.30
2018-04-09T11:40:03.856Z,22.01
2018-04-09T11:41:08.197Z,21.96
2018-04-09T11:42:14.379Z,21.97
2018-04-09T11:43:19.587Z,22.29
2018-04-09T11:44:24.128Z,22.51
2018-04-09T11:45:28.520Z,22.33
2018-04-09T11:46:33.835Z,22.06
2018-04-09T11:47:38.779Z,21.63
2018-04-09T11:48:43.493Z,21.31
2018-04-09T11:49:47.712Z,21.01
2018-04-09T11:50:51.782Z,21.05
2018-04-09T11:51:56.324Z,20.99
2018-04-09T11:53:00.442Z,21.10
2018-04-09T11:54:04.834Z,21.59
2018-04-09T11:55:09.007Z,22.08
2018-04-09T11:56:13.182Z,22.15
2018-04-09T11:57:18.257Z,22.19
2018-04-09T11:58:22.391Z,22.49
2018-04-09T11:59:26.434Z,22.78
2018-04-09T12:00:31.897Z,22.83
2018-04-09T12:01:35.951Z,22.59
2018-04-09T12:02:40.112Z,22.44
2018-04-09T12:03:44.184Z,22.20
2018-04-09T12:04:48.252Z,22.21
2018-04-09T12:05:52.307Z,22.18
2018-04-09T12:06:56.388Z,22.27
2018-04-09T12:08:00.564Z,22.65
2018-04-09T12:09:05.938Z,22.79
2018-04-09T12:10:10.094Z,23.06
2018-04-09T12:11:14.195Z,23.50
2018-04-09T12:12:19.210Z,24.19
2018-04-09T12:13:23.616Z,24.94
2018-04-09T12:14:27.679Z,25.02
2018-04-09T12:15:32.097Z,24.90
2018-04-09T12:16:36.435Z,25.33
2018-04-09T12:17:40.762Z,25.91
2018-04-09T12:18:44.840Z,26.11
2018-04-09T12:19:50.309Z,26.08
2018-04-09T12:20:54.471Z,26.50
2018-04-09T12:21:58.615Z,26.79
2018-04-09T12:23:02.777Z,26.81
2018-04-09T12:24:06.807Z,26.80
2018-04-09T12:25:10.918Z,27.22
2018-04-09T12:26:15.291Z,27.97
2018-04-09T12:27:19.838Z,27.74
2018-04-09T12:28:23.971Z,27.18
2018-04-09T12:29:28.017Z,26.68
2018-04-09T12:30:32.479Z,26.29
2018-04-09T12:31:36.552Z,25.66
2018-04-09T12:32:41.003Z,25.58
2018-04-09T12:33:45.091Z,25.67
2018-04-09T12:34:49.247Z,25.67
2018-04-09T12:35:53.340Z,26.14
2018-04-09T12:36:57.493Z,26.73
2018-04-09T12:38:01.574Z,27.64
2018-04-09T12:39:06.592Z,28.32
2018-04-09T12:40:10.767Z,28.23
2018-04-09T12:41:14.859Z,27.05
2018-04-09T12:42:19.737Z,26.61
2018-04-09T12:43:23.916Z,26.62
2018-04-09T12:44:28.765Z,26.80
2018-04-09T12:45:34.407Z,26.78
2018-04-09T12:46:38.487Z,26.45
2018-04-09T12:47:42.542Z,25.98
2018-04-09T12:48:46.637Z,25.29
2018-04-09T12:49:50.694Z,24.70
2018-04-09T12:50:54.883Z,24.15
2018-04-09T12:51:58.982Z,24.40
2018-04-09T12:53:03.059Z,24.80
2018-04-09T12:54:07.298Z,24.93
2018-04-09T12:55:11.375Z,24.75
2018-04-09T12:56:15.456Z,24.61
2018-04-09T12:57:19.534Z,24.43
2018-04-09T13:02:47.299Z,23.61
2018-04-09T13:03:51.412Z,24.32
2018-04-09T13:04:55.625Z,25.10
2018-04-09T13:05:59.781Z,25.89
2018-04-09T13:07:04.274Z,26.51
2018-04-09T13:08:08.384Z,26.51
2018-04-09T13:09:12.636Z,26.11
2018-04-09T13:10:16.807Z,25.96
2018-04-09T13:11:20.939Z,25.72
2018-04-09T13:12:25.075Z,25.74
2018-04-09T13:13:30.157Z,25.69
2018-04-09T13:14:35.304Z,25.80
2018-04-09T13:15:39.555Z,25.26
2018-04-09T13:16:43.704Z,25.02
2018-04-09T13:17:47.808Z,24.83
2018-04-09T13:18:51.908Z,24.66
2018-04-09T13:19:56.452Z,24.35
2018-04-09T13:21:00.593Z,23.78
2018-04-09T13:22:04.707Z,23.59
2018-04-09T13:23:08.904Z,23.55
2018-04-09T13:24:13.008Z,23.58
2018-04-09T13:25:17.219Z,23.78
2018-04-09T13:26:21.648Z,24.17
2018-04-09T13:27:25.854Z,24.56
2018-04-09T13:28:30.659Z,24.58
2018-04-09T13:29:34.886Z,23.90
2018-04-09T13:30:39.432Z,23.30
2018-04-09T13:31:43.628Z,23.06
2018-04-09T13:32:47.768Z,22.79
2018-04-09T13:33:51.898Z,22.69
2018-04-09T13:34:56.117Z,22.68
2018-04-09T13:36:00.340Z,22.83
2018-04-09T13:37:04.753Z,23.13
2018-04-09T13:38:08.876Z,23.14
2018-04-09T13:39:12.993Z,23.14
2018-04-09T13:40:17.181Z,23.19
2018-04-09T13:41:21.289Z,22.73
2018-04-09T13:42:26.164Z,22.50
2018-04-09T13:43:30.566Z,22.29
2018-04-09T13:44:34.800Z,21.95
2018-04-09T13:45:39.192Z,21.71
2018-04-09T13:46:43.304Z,21.53
2018-04-09T13:47:47.512Z,21.56
2018-04-09T13:48:51.603Z,21.56
2018-04-09T13:49:56.188Z,21.67
2018-04-09T13:51:00.324Z,21.71
2018-04-09T13:52:04.521Z,21.56
2018-04-09T13:53:08.617Z,21.58
2018-04-09T13:54:12.707Z,21.90
2018-04-09T13:55:16.832Z,22.30
2018-04-09T13:56:21.248Z,22.65
2018-04-09T13:57:25.997Z,23.02
2018-04-09T13:58:31.276Z,23.40
2018-04-09T13:59:36.220Z,23.19
2018-04-09T14:00:40.491Z,23.02
2018-04-09T14:01:44.956Z,23.10
2018-04-09T14:02:49.520Z,23.14
2018-04-09T14:03:53.988Z,23.19
2018-04-09T14:04:58.111Z,23.28
2018-04-09T14:06:02.248Z,23.14
2018-04-09T14:07:06.440Z,22.98
2018-04-09T14:08:10.563Z,22.72
2018-04-09T14:09:15.176Z,22.53
2018-04-09T14:10:19.297Z,22.38
2018-04-09T14:11:25.053Z,22.29
2018-04-09T14:12:29.159Z,22.14
2018-04-09T14:13:34.141Z,22.04
2018-04-09T14:14:38.348Z,21.93
2018-04-09T14:15:42.788Z,21.93
2018-04-09T14:16:46.920Z,22.03
2018-04-09T14:17:51.026Z,22.17
2018-04-09T14:18:55.132Z,22.23
2018-04-09T14:19:59.373Z,22.39
2018-04-09T14:21:03.585Z,22.47
2018-04-09T14:22:08.105Z,22.57
2018-04-09T14:23:12.308Z,22.77
2018-04-09T14:24:16.472Z,22.92
2018-04-09T14:25:20.649Z,23.09
2018-04-09T14:26:24.790Z,23.00
2018-04-09T14:27:28.895Z,22.82